LPPS/PXO METAR and TAF weather

Enter ICAO airport designator
Station Type Date Time Source
LPPS METAR 2019/06/19 06:30 UTC NOAA

LPPS 190630Z 28009KT 9999 FEW006 BKN010 20/19 Q1018


Station Type Date Time Source
LPPS Decoded METAR 2019/06/19 06:30 UTC NOAA

Porto Santo, Portugal (LPPS) 33-04N 016-21W 82M
Jun 19, 2019 - 02:30 AM EDT / 2019.06.19 0630 UTC
Wind: from the W (280 degrees) at 10 MPH (9 KT):0
Visibility: greater than 7 mile(s):0
Sky conditions: mostly cloudy
Temperature: 68 F (20 C)
Dew Point: 66 F (19 C)
Relative Humidity: 93%
Pressure (altimeter): 30.06 in. Hg (1018 hPa)
ob: LPPS 190630Z 28009KT 9999 FEW006 BKN010 20/19 Q1018
cycle: 6

Station Type Date Time Source
LPPS TAF 2019/06/19 06:18 UTC NOAA

TAF LPPS 190500Z 1906/2012 27008KT 9999 SCT012 BKN030
TEMPO 1906/1912 BKN012
BECMG 1908/1911 30010KT
BECMG 2006/2008 36010KT

Example: see airport list